createdAt,value
2023-01-31T00:04:04.392Z,69.60
2023-01-31T00:09:10.116Z,69.34
2023-01-31T00:14:19.012Z,71.27
2023-01-31T00:19:22.218Z,73.05
2023-01-31T00:24:25.353Z,73.10
2023-01-31T00:29:29.461Z,73.32
2023-01-31T00:34:32.592Z,73.00
2023-01-31T00:39:36.278Z,73.32
2023-01-31T00:44:40.530Z,72.56
2023-01-31T00:49:43.633Z,72.07
2023-01-31T00:54:47.130Z,71.47
2023-01-31T00:59:50.565Z,71.03
2023-01-31T01:04:53.792Z,71.12
2023-01-31T01:09:57.229Z,71.83
2023-01-31T01:15:00.506Z,72.70
2023-01-31T01:20:03.973Z,74.73
2023-01-31T01:25:08.111Z,75.43
2023-01-31T01:30:12.695Z,75.89
2023-01-31T01:35:16.189Z,76.00
2023-01-31T01:40:19.337Z,75.29
2023-01-31T01:45:23.146Z,74.78
2023-01-31T01:50:36.931Z,75.72
2023-01-31T01:56:03.986Z,76.54
2023-01-31T02:01:08.735Z,75.97
2023-01-31T02:06:13.071Z,76.33
2023-01-31T02:11:25.090Z,75.59
2023-01-31T02:16:29.271Z,75.30
2023-01-31T02:21:47.543Z,75.13
2023-01-31T02:27:31.037Z,74.48
2023-01-31T02:32:58.663Z,73.70
2023-01-31T02:38:11.064Z,74.13
2023-01-31T02:43:26.328Z,73.16
2023-01-31T02:48:44.121Z,72.79
2023-01-31T02:53:56.324Z,73.22
2023-01-31T02:59:10.717Z,73.41
2023-01-31T03:04:15.154Z,72.11
2023-01-31T03:09:20.227Z,71.86
2023-01-31T03:14:32.057Z,71.08
2023-01-31T03:20:02.930Z,70.54
2023-01-31T03:25:12.661Z,70.31
2023-01-31T03:30:36.808Z,69.74
2023-01-31T03:35:43.230Z,69.84
2023-01-31T03:41:18.656Z,69.87
2023-01-31T03:46:31.632Z,70.79
2023-01-31T03:51:37.475Z,71.53
2023-01-31T03:57:01.569Z,72.62
2023-01-31T04:02:09.124Z,72.62
2023-01-31T04:07:12.611Z,72.89
2023-01-31T04:12:16.594Z,73.43
2023-01-31T04:17:19.779Z,73.76
2023-01-31T04:22:23.306Z,73.20
2023-01-31T04:27:26.345Z,73.12
2023-01-31T04:32:29.477Z,73.44
2023-01-31T04:37:33.043Z,74.55
2023-01-31T04:42:36.523Z,75.15
2023-01-31T04:47:39.693Z,75.41
2023-01-31T04:52:43.248Z,76.14
2023-01-31T04:57:46.474Z,76.10
2023-01-31T05:02:49.744Z,76.65
2023-01-31T05:07:52.895Z,76.63
2023-01-31T05:12:56.035Z,76.93
2023-01-31T05:17:59.344Z,76.54
2023-01-31T05:23:02.823Z,76.51
2023-01-31T05:28:06.140Z,76.93
2023-01-31T05:33:10.571Z,76.59
2023-01-31T05:38:15.974Z,76.85
2023-01-31T05:43:19.626Z,76.86
2023-01-31T05:48:22.907Z,77.46
2023-01-31T05:53:26.038Z,77.76
2023-01-31T05:58:29.267Z,77.63
2023-01-31T06:03:32.483Z,77.25
2023-01-31T06:08:35.673Z,77.56
2023-01-31T06:13:40.041Z,77.79
2023-01-31T06:18:43.285Z,77.73
2023-01-31T06:23:48.030Z,78.10
2023-01-31T06:28:51.029Z,77.85
2023-01-31T06:33:54.482Z,78.03
2023-01-31T06:38:58.148Z,78.13
2023-01-31T06:44:01.365Z,78.37
2023-01-31T06:49:04.563Z,77.86
2023-01-31T06:54:07.894Z,77.59
2023-01-31T06:59:11.057Z,77.16
2023-01-31T07:04:14.555Z,78.28
2023-01-31T07:09:17.834Z,78.18
2023-01-31T07:14:21.072Z,78.58
2023-01-31T07:19:24.748Z,78.83
2023-01-31T07:24:27.857Z,78.12
2023-01-31T07:29:31.329Z,76.95
2023-01-31T07:34:34.675Z,77.24
2023-01-31T07:39:37.583Z,77.91
2023-01-31T07:44:40.551Z,78.28
2023-01-31T07:49:43.718Z,78.39
2023-01-31T07:54:47.643Z,77.99
2023-01-31T07:59:51.154Z,78.07
2023-01-31T08:04:54.217Z,78.08
2023-01-31T08:09:57.110Z,77.89
2023-01-31T08:15:02.136Z,78.30
2023-01-31T08:20:08.343Z,78.27
2023-01-31T08:25:11.840Z,78.13
2023-01-31T08:30:15.905Z,78.99
2023-01-31T08:35:19.349Z,78.34
2023-01-31T08:40:22.870Z,78.28
2023-01-31T08:45:26.515Z,79.47
2023-01-31T08:50:31.588Z,79.22
2023-01-31T08:55:36.875Z,78.51
2023-01-31T09:00:40.639Z,78.70
2023-01-31T09:05:45.043Z,78.13
2023-01-31T09:10:53.098Z,78.04
2023-01-31T09:16:05.412Z,78.42
2023-01-31T09:21:16.029Z,78.46
2023-01-31T09:26:19.280Z,78.09
2023-01-31T09:31:22.202Z,77.67
2023-01-31T09:36:25.291Z,77.88
2023-01-31T09:41:31.948Z,78.10
2023-01-31T09:46:45.114Z,77.96
2023-01-31T09:51:52.022Z,77.20
2023-01-31T09:57:00.379Z,76.35
2023-01-31T10:02:15.456Z,75.76
2023-01-31T10:07:32.183Z,74.01
2023-01-31T10:12:46.072Z,73.12
2023-01-31T10:18:12.851Z,74.30
2023-01-31T10:23:25.596Z,77.59
2023-01-31T10:28:40.918Z,78.82
2023-01-31T10:33:56.894Z,78.15
2023-01-31T10:39:20.827Z,78.30
2023-01-31T10:44:52.395Z,78.62
2023-01-31T10:49:56.361Z,78.54
2023-01-31T10:55:37.864Z,77.67
2023-01-31T11:00:41.232Z,77.99
2023-01-31T11:05:53.143Z,78.10
2023-01-31T11:10:58.184Z,78.49
2023-01-31T11:16:03.545Z,78.65
2023-01-31T11:21:08.270Z,77.65
2023-01-31T11:26:12.943Z,77.77
2023-01-31T11:31:21.438Z,77.88
2023-01-31T11:36:25.860Z,78.57
2023-01-31T11:41:37.582Z,77.75
2023-01-31T11:47:03.831Z,76.71
2023-01-31T11:52:18.833Z,76.23
2023-01-31T11:57:27.816Z,75.70
2023-01-31T12:02:41.977Z,76.07
2023-01-31T12:07:51.578Z,75.83
2023-01-31T12:13:16.416Z,75.73
2023-01-31T12:18:49.664Z,75.58
2023-01-31T12:24:12.302Z,75.08
2023-01-31T12:29:42.351Z,75.19
2023-01-31T12:34:59.583Z,74.54
2023-01-31T12:40:26.909Z,73.66
2023-01-31T12:45:34.795Z,73.34
2023-01-31T12:50:52.811Z,72.06
2023-01-31T12:55:55.934Z,71.73
2023-01-31T13:01:04.956Z,71.52
2023-01-31T13:06:15.428Z,71.64
2023-01-31T13:11:25.353Z,71.65
2023-01-31T13:16:47.708Z,71.61
2023-01-31T13:21:57.444Z,73.80
2023-01-31T13:27:23.547Z,75.86
2023-01-31T13:32:36.293Z,75.95
2023-01-31T13:37:43.933Z,76.09
2023-01-31T13:42:50.961Z,75.46
2023-01-31T13:48:00.820Z,75.06
2023-01-31T13:53:07.440Z,74.42
2023-01-31T13:58:34.243Z,74.50
2023-01-31T14:04:18.317Z,74.24
2023-01-31T14:09:32.041Z,73.91
2023-01-31T14:14:35.246Z,73.29
2023-01-31T14:19:44.249Z,73.61
2023-01-31T14:24:47.448Z,73.96
2023-01-31T14:30:54.364Z,73.74
2023-01-31T14:36:26.848Z,73.15
2023-01-31T14:41:57.809Z,72.97
2023-01-31T14:47:08.191Z,72.75
2023-01-31T14:52:22.016Z,72.38
2023-01-31T14:57:30.522Z,72.25
2023-01-31T15:02:33.953Z,71.85
2023-01-31T15:07:57.073Z,71.50
2023-01-31T15:13:00.609Z,71.65
2023-01-31T15:18:16.719Z,71.05
2023-01-31T15:23:26.144Z,70.73
2023-01-31T15:28:40.503Z,70.61
2023-01-31T15:33:49.534Z,70.06
2023-01-31T15:38:58.250Z,69.40
2023-01-31T15:44:24.773Z,69.26
2023-01-31T15:49:40.164Z,69.24
2023-01-31T15:55:05.916Z,69.23
2023-01-31T16:00:23.979Z,69.29
2023-01-31T16:05:37.876Z,69.34
2023-01-31T16:10:43.636Z,69.36
2023-01-31T16:15:49.083Z,69.05
2023-01-31T16:20:55.420Z,69.14
2023-01-31T16:26:26.257Z,68.74
2023-01-31T16:31:33.762Z,69.05
2023-01-31T16:36:50.256Z,69.33
2023-01-31T16:41:57.220Z,69.16
2023-01-31T16:47:01.183Z,68.85
2023-01-31T16:52:28.705Z,68.56
2023-01-31T16:57:31.960Z,69.17
2023-01-31T17:02:41.702Z,68.82
2023-01-31T17:07:47.463Z,69.15
2023-01-31T17:12:53.448Z,68.84
2023-01-31T17:17:59.590Z,68.66
2023-01-31T17:23:08.963Z,69.67
2023-01-31T17:28:14.861Z,70.44
2023-01-31T17:33:17.942Z,72.90
2023-01-31T17:38:21.099Z,73.96
2023-01-31T17:43:24.760Z,74.39
2023-01-31T17:48:29.299Z,74.56
2023-01-31T17:53:37.422Z,73.79
2023-01-31T17:58:43.987Z,74.10
2023-01-31T18:03:47.280Z,73.55
2023-01-31T18:08:52.483Z,74.00
2023-01-31T18:13:59.325Z,74.08
2023-01-31T18:19:06.747Z,73.34
2023-01-31T18:24:10.865Z,73.17
2023-01-31T18:29:15.538Z,73.27
2023-01-31T18:34:18.787Z,74.11
2023-01-31T18:39:22.083Z,75.20
2023-01-31T18:44:25.271Z,76.25
2023-01-31T18:49:28.403Z,74.88
2023-01-31T18:54:34.458Z,75.75
2023-01-31T18:59:37.567Z,75.55
2023-01-31T19:04:40.875Z,75.60
2023-01-31T19:09:44.075Z,75.93
2023-01-31T19:14:48.348Z,77.45
2023-01-31T19:19:52.331Z,77.39
2023-01-31T19:24:55.819Z,77.01
2023-01-31T19:29:59.176Z,77.72
2023-01-31T19:35:02.330Z,78.02
2023-01-31T19:40:05.972Z,77.37
2023-01-31T19:45:10.156Z,77.56
2023-01-31T19:50:13.364Z,77.33
2023-01-31T19:55:16.433Z,77.28
2023-01-31T20:00:20.935Z,76.87
2023-01-31T20:05:24.699Z,76.47
2023-01-31T20:10:27.974Z,76.52
2023-01-31T20:15:31.693Z,77.76
2023-01-31T20:20:34.875Z,78.92
2023-01-31T20:25:38.238Z,78.85
2023-01-31T20:30:41.614Z,78.53
2023-01-31T20:35:44.832Z,78.63
2023-01-31T20:40:54.426Z,78.33
2023-01-31T20:46:10.106Z,78.32
2023-01-31T20:51:13.647Z,78.70
2023-01-31T20:56:17.011Z,79.86
2023-01-31T21:01:20.242Z,79.93
2023-01-31T21:06:23.154Z,79.11
2023-01-31T21:11:27.492Z,79.39
2023-01-31T21:16:31.080Z,79.54
2023-01-31T21:21:34.178Z,78.95
2023-01-31T21:26:37.363Z,79.20
2023-01-31T21:31:40.717Z,79.04
2023-01-31T21:36:45.724Z,79.03
2023-01-31T21:41:49.018Z,79.61
2023-01-31T21:46:52.387Z,79.19
2023-01-31T21:51:55.436Z,79.45
2023-01-31T21:56:58.859Z,79.19
2023-01-31T22:02:02.211Z,79.38
2023-01-31T22:07:05.307Z,79.30
2023-01-31T22:12:08.394Z,79.31
2023-01-31T22:17:11.658Z,79.48
2023-01-31T22:22:15.226Z,78.99
2023-01-31T22:27:18.586Z,78.97
2023-01-31T22:32:21.538Z,79.29
2023-01-31T22:37:24.712Z,78.46
2023-01-31T22:42:27.901Z,79.10
2023-01-31T22:47:32.591Z,78.54
2023-01-31T22:52:37.018Z,79.45
2023-01-31T22:57:40.549Z,80.06
2023-01-31T23:02:44.055Z,79.74
2023-01-31T23:07:47.146Z,79.66
2023-01-31T23:12:50.864Z,79.31
2023-01-31T23:17:54.000Z,80.09
2023-01-31T23:22:58.549Z,80.66
2023-01-31T23:28:01.728Z,79.99
2023-01-31T23:33:04.796Z,80.24
2023-01-31T23:38:08.453Z,80.63
2023-01-31T23:43:11.467Z,80.36
2023-01-31T23:48:15.371Z,81.07
2023-01-31T23:53:18.671Z,81.29
2023-01-31T23:58:21.715Z,81.26
